Time;durP1;ratioP1;P1;durP2;ratioP2;P2;SDS_P1;SDS_P2;PMS_P1;PMS_P2;Temp;Humidity;BMP_temperature;BMP_pressure;BME280_temperature;BME280_humidity;BME280_pressure;Samples;Min_cycle;Max_cycle;Signal;HPM_P1;HPM_P2
2023/09/14 00:02:03;;;;;;;0.80;0.80;;;22.10;99.90;;;;;;5033010;28;20195;-64
2023/09/14 00:04:30;;;;;;;0.70;0.70;;;22.10;99.90;;;;;;5031600;28;20326;-64
2023/09/14 00:06:58;;;;;;;0.50;0.50;;;22.00;99.90;;;;;;5032564;28;20206;-64
2023/09/14 00:09:26;;;;;;;0.60;0.60;;;22.00;99.90;;;;;;5032357;28;20408;-63
2023/09/14 00:11:54;;;;;;;0.70;0.70;;;22.00;99.90;;;;;;5032814;28;20198;-63
2023/09/14 00:14:21;;;;;;;0.70;0.70;;;22.00;99.90;;;;;;5031655;28;20352;-64
2023/09/14 00:16:48;;;;;;;0.70;0.70;;;22.00;99.90;;;;;;5030172;28;20276;-63
2023/09/14 00:19:15;;;;;;;1.02;0.90;;;22.00;99.90;;;;;;5028217;28;20227;-63
2023/09/14 00:21:42;;;;;;;0.75;0.75;;;22.00;99.90;;;;;;5031783;28;20198;-63
2023/09/14 00:24:10;;;;;;;0.50;0.50;;;22.00;99.90;;;;;;5031574;28;20728;-64
2023/09/14 00:26:37;;;;;;;0.70;0.70;;;22.00;99.90;;;;;;5032015;28;20689;-64
2023/09/14 00:29:04;;;;;;;1.55;0.80;;;22.00;99.90;;;;;;5014048;28;20241;-63
2023/09/14 00:31:34;;;;;;;0.60;0.60;;;22.00;99.90;;;;;;5032209;28;20209;-63
2023/09/14 00:34:01;;;;;;;0.60;0.60;;;22.00;99.90;;;;;;5013358;28;20214;-63
2023/09/14 00:36:28;;;;;;;2.05;0.88;;;21.90;99.90;;;;;;5031421;28;20194;-63
2023/09/14 00:38:55;;;;;;;0.60;0.60;;;21.90;99.90;;;;;;5031076;28;20203;-63
2023/09/14 00:41:23;;;;;;;0.60;0.60;;;21.90;99.90;;;;;;5014480;28;20602;-64
2023/09/14 00:43:53;;;;;;;0.50;0.50;;;21.90;99.90;;;;;;5014132;28;20379;-64
2023/09/14 00:46:20;;;;;;;0.60;0.60;;;22.00;99.90;;;;;;5022331;28;20280;-64
2023/09/14 00:48:48;;;;;;;0.70;0.70;;;21.80;99.90;;;;;;5031101;28;20669;-64
2023/09/14 00:51:15;;;;;;;0.60;0.60;;;21.80;99.90;;;;;;5031302;28;20264;-64
2023/09/14 00:53:43;;;;;;;0.70;0.70;;;21.80;99.90;;;;;;5013701;28;20233;-64
2023/09/14 00:56:11;;;;;;;0.73;0.73;;;21.80;99.90;;;;;;5031779;28;20230;-64
2023/09/14 00:58:40;;;;;;;0.80;0.80;;;21.80;99.90;;;;;;5031470;28;20229;-63
2023/09/14 01:01:07;;;;;;;0.73;0.73;;;21.80;99.90;;;;;;5031912;28;20194;-62
2023/09/14 01:03:34;;;;;;;0.73;0.73;;;21.80;99.90;;;;;;5030661;28;20245;-63
2023/09/14 01:06:01;;;;;;;0.68;0.68;;;21.80;99.90;;;;;;5030362;28;20557;-63
2023/09/14 01:08:29;;;;;;;1.05;0.75;;;21.80;99.90;;;;;;5031978;28;20421;-63
2023/09/14 01:10:56;;;;;;;0.60;0.60;;;21.80;99.90;;;;;;5030506;28;20195;-63
2023/09/14 01:13:30;;;;;;;1.35;0.80;;;21.70;99.90;;;;;;5031532;28;20268;-63
2023/09/14 01:16:08;;;;;;;1.05;0.80;;;21.80;99.90;;;;;;5013122;28;20216;-64
2023/09/14 01:18:41;;;;;;;0.90;0.80;;;21.70;99.90;;;;;;5011231;28;20191;-63
2023/09/14 01:21:29;;;;;;;0.88;0.88;;;21.70;99.90;;;;;;5008030;28;20200;-64
2023/09/14 01:24:03;;;;;;;0.60;0.60;;;21.70;99.90;;;;;;5021348;28;20245;-64
2023/09/14 01:26:33;;;;;;;0.70;0.70;;;21.60;99.90;;;;;;5012262;28;20264;-64
2023/09/14 01:29:04;;;;;;;1.00;0.77;;;21.70;99.90;;;;;;5031314;28;20225;-63
2023/09/14 01:31:31;;;;;;;0.88;0.82;;;21.70;99.90;;;;;;5012422;28;20218;-63
2023/09/14 01:33:58;;;;;;;1.15;0.60;;;21.70;99.90;;;;;;5012454;28;20222;-64
2023/09/14 01:36:36;;;;;;;0.70;0.70;;;21.70;99.90;;;;;;5011978;28;20206;-63
2023/09/14 01:39:05;;;;;;;0.80;0.80;;;21.70;99.90;;;;;;5012838;28;20752;-63
2023/09/14 01:41:35;;;;;;;0.70;0.60;;;21.60;99.90;;;;;;5013694;28;20295;-63
2023/09/14 01:44:04;;;;;;;0.95;0.70;;;21.60;99.90;;;;;;5013110;28;20240;-63
2023/09/14 01:46:33;;;;;;;0.75;0.75;;;21.60;99.90;;;;;;5012848;28;20688;-63
2023/09/14 01:49:00;;;;;;;0.52;0.52;;;21.60;99.90;;;;;;5012260;28;20207;-63
2023/09/14 01:51:28;;;;;;;0.70;0.70;;;21.60;99.90;;;;;;5030786;28;20253;-63
2023/09/14 01:53:55;;;;;;;0.70;0.70;;;21.60;99.90;;;;;;5030360;28;20233;-64
2023/09/14 01:56:26;;;;;;;0.65;0.65;;;21.50;99.90;;;;;;5012766;28;20206;-63
2023/09/14 01:58:55;;;;;;;0.60;0.60;;;21.50;99.90;;;;;;5013152;28;20210;-64
2023/09/14 02:01:22;;;;;;;0.70;0.70;;;21.50;99.90;;;;;;5012964;28;20283;-64
2023/09/14 02:03:49;;;;;;;0.70;0.70;;;21.50;99.90;;;;;;5021539;28;20559;-63
2023/09/14 02:06:16;;;;;;;0.63;0.63;;;21.40;99.90;;;;;;5029472;28;20566;-63
2023/09/14 02:08:43;;;;;;;0.98;0.70;;;21.50;99.90;;;;;;5030742;28;20605;-63
2023/09/14 02:11:11;;;;;;;1.50;0.90;;;21.40;99.90;;;;;;5011888;28;20213;-64
2023/09/14 02:13:38;;;;;;;0.90;0.70;;;21.50;99.90;;;;;;5030462;28;20214;-63
2023/09/14 02:16:07;;;;;;;2.13;0.60;;;21.40;99.90;;;;;;4996845;28;20207;-64
2023/09/14 02:18:34;;;;;;;0.50;0.50;;;21.50;99.90;;;;;;5019988;28;20264;-62
2023/09/14 02:21:01;;;;;;;1.65;0.80;;;21.40;99.90;;;;;;5029397;28;20203;-63
2023/09/14 02:23:28;;;;;;;0.98;0.70;;;21.40;99.90;;;;;;5012884;28;20654;-63
2023/09/14 02:25:55;;;;;;;1.60;0.70;;;21.40;99.90;;;;;;5011781;28;20253;-63
2023/09/14 02:28:22;;;;;;;1.45;0.75;;;21.40;99.90;;;;;;5022927;28;20717;-64
2023/09/14 02:30:49;;;;;;;0.60;0.60;;;21.40;99.90;;;;;;5024632;28;20242;-64
2023/09/14 02:33:17;;;;;;;1.38;0.80;;;21.50;99.90;;;;;;5029612;28;20280;-64
2023/09/14 02:35:50;;;;;;;0.73;0.60;;;21.50;99.90;;;;;;5029108;28;20669;-64
2023/09/14 02:38:18;;;;;;;0.70;0.70;;;21.40;99.90;;;;;;5030955;28;20237;-65
2023/09/14 02:40:45;;;;;;;0.70;0.60;;;21.40;99.90;;;;;;5011779;28;20202;-64
2023/09/14 02:43:12;;;;;;;0.73;0.73;;;21.40;99.90;;;;;;5012538;28;20218;-64
2023/09/14 02:45:39;;;;;;;0.95;0.65;;;21.40;99.90;;;;;;5012290;28;20578;-64
2023/09/14 02:48:07;;;;;;;0.93;0.93;;;21.30;99.90;;;;;;5012012;28;20279;-64
2023/09/14 02:50:35;;;;;;;0.63;0.60;;;21.30;99.90;;;;;;5029556;28;20194;-64
2023/09/14 02:53:02;;;;;;;0.75;0.70;;;21.30;99.90;;;;;;5030652;28;20193;-64
2023/09/14 02:55:29;;;;;;;0.75;0.75;;;21.30;99.90;;;;;;5012104;28;20316;-62
2023/09/14 02:57:56;;;;;;;1.42;0.95;;;21.30;99.90;;;;;;5012034;28;20222;-63
2023/09/14 03:00:27;;;;;;;1.80;0.82;;;21.20;99.90;;;;;;5029866;28;20198;-63
2023/09/14 03:02:55;;;;;;;0.80;0.80;;;21.20;99.90;;;;;;5029138;28;20225;-63
2023/09/14 03:05:22;;;;;;;1.85;0.80;;;21.20;99.90;;;;;;5010797;28;20226;-64
2023/09/14 03:07:50;;;;;;;1.00;0.75;;;21.30;99.90;;;;;;5012236;28;20214;-64
2023/09/14 03:10:17;;;;;;;0.93;0.90;;;21.20;99.90;;;;;;5011344;28;20194;-64
2023/09/14 03:12:45;;;;;;;0.60;0.60;;;21.30;99.90;;;;;;5011019;28;20201;-64
2023/09/14 03:15:12;;;;;;;1.15;0.90;;;21.30;99.90;;;;;;5012178;28;20242;-64
2023/09/14 03:17:39;;;;;;;1.85;0.60;;;21.30;99.90;;;;;;5010895;28;20202;-64
2023/09/14 03:20:10;;;;;;;1.30;0.60;;;21.30;99.90;;;;;;5010471;28;20206;-63
2023/09/14 03:22:38;;;;;;;0.60;0.60;;;21.20;99.90;;;;;;5029800;28;20219;-64
2023/09/14 03:25:08;;;;;;;0.75;0.57;;;21.30;99.90;;;;;;5011307;28;20674;-64
2023/09/14 03:27:36;;;;;;;0.43;0.43;;;21.30;99.90;;;;;;5011981;28;20194;-63
2023/09/14 03:30:05;;;;;;;0.50;0.50;;;21.30;99.90;;;;;;5006563;28;20205;-63
2023/09/14 03:32:32;;;;;;;0.55;0.55;;;21.20;99.90;;;;;;5028188;28;20724;-63
2023/09/14 03:34:59;;;;;;;0.45;0.45;;;21.20;99.90;;;;;;5009673;28;20225;-63
2023/09/14 03:37:26;;;;;;;0.98;0.70;;;21.20;99.90;;;;;;5012497;28;20293;-63
2023/09/14 03:39:53;;;;;;;0.60;0.55;;;21.20;99.90;;;;;;5010755;28;20538;-63
2023/09/14 03:42:22;;;;;;;1.55;0.80;;;21.10;99.90;;;;;;5012173;28;20203;-63
2023/09/14 03:44:49;;;;;;;0.80;0.50;;;21.10;99.90;;;;;;5029358;28;20296;-64
2023/09/14 03:47:16;;;;;;;0.50;0.50;;;21.10;99.90;;;;;;5028894;28;20286;-64
2023/09/14 03:49:43;;;;;;;1.48;0.70;;;21.10;99.90;;;;;;5028151;28;20728;-64
2023/09/14 03:52:10;;;;;;;0.60;0.60;;;21.00;99.90;;;;;;5029722;28;20222;-64
2023/09/14 03:54:38;;;;;;;0.70;0.70;;;21.00;99.90;;;;;;5029346;28;20222;-65
2023/09/14 03:57:14;;;;;;;0.63;0.63;;;21.00;99.90;;;;;;5032723;28;20241;-62
2023/09/14 03:59:43;;;;;;;0.52;0.52;;;21.10;99.90;;;;;;5015152;28;20229;-63
2023/09/14 04:02:11;;;;;;;0.60;0.60;;;21.10;99.90;;;;;;5015025;28;20202;-62
2023/09/14 04:04:40;;;;;;;0.70;0.70;;;21.10;99.90;;;;;;5012604;28;20261;-63
2023/09/14 04:07:07;;;;;;;0.60;0.60;;;21.10;99.90;;;;;;5013932;28;20207;-63
2023/09/14 04:09:35;;;;;;;0.60;0.60;;;21.10;99.90;;;;;;5010531;28;20202;-64
2023/09/14 04:12:02;;;;;;;0.60;0.60;;;21.10;99.90;;;;;;5030720;28;20619;-63
2023/09/14 04:14:29;;;;;;;0.60;0.60;;;21.10;99.90;;;;;;5032307;28;20241;-62
2023/09/14 04:16:59;;;;;;;0.70;0.70;;;21.10;99.90;;;;;;5032197;28;20206;-63
2023/09/14 04:19:27;;;;;;;0.75;0.75;;;21.10;99.90;;;;;;5032262;28;20697;-64
2023/09/14 04:21:54;;;;;;;0.50;0.50;;;21.10;99.90;;;;;;5032525;28;20199;-64
2023/09/14 04:24:21;;;;;;;0.55;0.55;;;21.10;99.90;;;;;;5014143;28;20199;-64
2023/09/14 04:26:49;;;;;;;0.70;0.70;;;21.10;99.90;;;;;;5032479;28;20373;-64
2023/09/14 04:29:16;;;;;;;1.17;0.63;;;21.10;99.90;;;;;;5014579;28;20203;-64
2023/09/14 04:31:43;;;;;;;0.70;0.70;;;21.10;99.90;;;;;;5014561;28;20203;-64
2023/09/14 04:34:12;;;;;;;0.50;0.50;;;21.10;99.90;;;;;;5011567;28;20219;-63
2023/09/14 04:36:39;;;;;;;0.80;0.80;;;21.10;99.90;;;;;;5030633;28;20246;-64
2023/09/14 04:39:06;;;;;;;0.80;0.80;;;21.00;99.90;;;;;;5013932;28;20248;-63
2023/09/14 04:41:33;;;;;;;0.60;0.60;;;21.10;99.90;;;;;;5014627;28;20225;-63
2023/09/14 04:44:00;;;;;;;0.50;0.50;;;21.10;99.90;;;;;;5013965;28;20294;-63
2023/09/14 04:46:28;;;;;;;0.63;0.63;;;21.10;99.90;;;;;;5014249;28;20206;-63
2023/09/14 04:48:55;;;;;;;0.68;0.68;;;21.10;99.90;;;;;;5031407;28;20202;-64
2023/09/14 04:51:23;;;;;;;0.55;0.55;;;21.10;99.90;;;;;;5031835;28;20740;-63
2023/09/14 04:53:51;;;;;;;0.70;0.70;;;21.10;99.90;;;;;;5013591;28;20210;-63
2023/09/14 04:56:19;;;;;;;0.60;0.60;;;21.10;99.90;;;;;;5014188;28;20205;-63
2023/09/14 04:58:46;;;;;;;0.82;0.60;;;21.10;99.90;;;;;;5031249;28;20253;-63
2023/09/14 05:01:13;;;;;;;0.60;0.60;;;21.00;99.90;;;;;;5031055;28;20229;-64
2023/09/14 05:03:41;;;;;;;0.60;0.60;;;21.00;99.90;;;;;;5011987;28;20234;-63
2023/09/14 05:06:09;;;;;;;0.55;0.55;;;21.00;99.90;;;;;;5011739;28;20569;-63
2023/09/14 05:08:37;;;;;;;1.13;0.73;;;21.00;99.90;;;;;;5032126;28;20248;-63
2023/09/14 05:11:04;;;;;;;0.50;0.50;;;21.00;99.90;;;;;;5025147;28;20658;-64
2023/09/14 05:13:32;;;;;;;0.70;0.70;;;21.00;99.90;;;;;;5013874;28;20210;-63
2023/09/14 05:15:59;;;;;;;0.60;0.60;;;20.90;99.90;;;;;;5031285;28;20296;-63
2023/09/14 05:18:27;;;;;;;0.90;0.90;;;21.00;99.90;;;;;;5013008;28;20199;-63
2023/09/14 05:20:54;;;;;;;0.68;0.68;;;21.00;99.90;;;;;;5012358;28;20637;-65
2023/09/14 05:23:21;;;;;;;0.90;0.73;;;21.00;99.90;;;;;;5013767;28;20210;-62
2023/09/14 05:25:51;;;;;;;1.27;0.60;;;21.00;99.90;;;;;;5012568;28;20309;-63
2023/09/14 05:28:18;;;;;;;0.65;0.65;;;21.00;99.90;;;;;;5013282;28;20550;-64
2023/09/14 05:30:45;;;;;;;0.80;0.80;;;21.00;99.90;;;;;;5013294;28;20206;-63
2023/09/14 05:33:13;;;;;;;0.60;0.60;;;20.90;99.90;;;;;;5012690;28;20206;-63
2023/09/14 05:35:43;;;;;;;0.57;0.57;;;20.90;99.90;;;;;;5005468;28;20781;-64
2023/09/14 05:38:11;;;;;;;1.05;0.80;;;20.90;99.90;;;;;;5013433;28;20198;-63
2023/09/14 05:40:38;;;;;;;0.60;0.60;;;20.90;99.90;;;;;;5030464;28;20209;-63
2023/09/14 05:43:06;;;;;;;0.50;0.50;;;20.90;99.90;;;;;;5013542;28;20210;-64
2023/09/14 05:45:34;;;;;;;0.50;0.50;;;20.90;99.90;;;;;;5012600;28;20202;-62
2023/09/14 05:48:04;;;;;;;0.43;0.43;;;20.90;99.90;;;;;;5028434;28;20198;-63
2023/09/14 05:50:33;;;;;;;0.70;0.70;;;20.80;99.90;;;;;;5026637;28;20252;-63
2023/09/14 05:53:00;;;;;;;0.60;0.60;;;20.90;99.90;;;;;;5012975;28;20202;-63
2023/09/14 05:55:28;;;;;;;0.60;0.60;;;20.80;99.90;;;;;;5012776;28;20225;-63
2023/09/14 05:57:55;;;;;;;0.75;0.75;;;20.80;99.90;;;;;;5029110;28;20670;-63
2023/09/14 06:00:23;;;;;;;0.40;0.40;;;20.80;99.90;;;;;;5030909;28;20197;-64
2023/09/14 06:02:54;;;;;;;0.50;0.50;;;20.80;99.90;;;;;;5008746;28;20213;-64
2023/09/14 06:05:21;;;;;;;0.40;0.40;;;20.90;99.90;;;;;;5006797;28;20258;-63
2023/09/14 06:07:48;;;;;;;0.50;0.50;;;21.00;99.90;;;;;;5028069;28;20222;-64
2023/09/14 06:10:16;;;;;;;0.80;0.80;;;21.00;99.90;;;;;;5008247;28;20198;-64
2023/09/14 06:12:44;;;;;;;0.60;0.60;;;20.90;99.90;;;;;;5030515;28;20207;-62
2023/09/14 06:15:11;;;;;;;0.50;0.50;;;21.00;99.90;;;;;;5030077;28;20211;-64
2023/09/14 06:17:41;;;;;;;0.60;0.60;;;21.00;99.90;;;;;;5030068;28;20753;-64
2023/09/14 06:20:09;;;;;;;1.08;0.50;;;21.00;99.90;;;;;;5029161;28;20280;-64
2023/09/14 06:22:36;;;;;;;0.55;0.55;;;21.00;99.90;;;;;;5030662;28;20554;-64
2023/09/14 06:25:03;;;;;;;0.70;0.70;;;21.00;99.90;;;;;;5027646;28;20195;-63
2023/09/14 06:27:30;;;;;;;1.33;0.70;;;21.00;99.90;;;;;;5030330;28;20598;-63
2023/09/14 06:29:57;;;;;;;0.70;0.70;;;21.00;99.90;;;;;;5029846;28;20225;-63
2023/09/14 06:32:24;;;;;;;0.90;0.90;;;21.00;99.90;;;;;;5030339;28;20256;-63
2023/09/14 06:34:53;;;;;;;0.75;0.75;;;21.00;99.90;;;;;;5027218;28;20268;-62
2023/09/14 06:37:20;;;;;;;1.05;0.70;;;21.00;99.90;;;;;;5030655;28;20221;-63
2023/09/14 06:39:47;;;;;;;2.03;1.10;;;21.00;99.90;;;;;;5023898;28;20194;-63
2023/09/14 06:42:14;;;;;;;1.15;1.05;;;21.00;99.90;;;;;;5029900;28;20202;-63
2023/09/14 06:44:41;;;;;;;1.33;1.02;;;21.00;99.90;;;;;;5021643;28;20547;-63
2023/09/14 06:47:08;;;;;;;1.42;1.00;;;21.00;99.90;;;;;;5030064;28;20244;-62
2023/09/14 06:49:35;;;;;;;0.77;0.77;;;21.00;99.90;;;;;;5028602;28;20662;-63
2023/09/14 06:52:04;;;;;;;0.75;0.75;;;21.00;99.90;;;;;;5026829;28;20270;-63
2023/09/14 06:54:31;;;;;;;0.90;0.90;;;21.00;99.90;;;;;;5025204;28;20190;-63
2023/09/14 06:56:59;;;;;;;0.80;0.80;;;21.00;99.90;;;;;;5012230;28;20292;-63
2023/09/14 06:59:26;;;;;;;2.75;0.90;;;21.00;99.90;;;;;;5029626;28;20202;-64
2023/09/14 07:01:53;;;;;;;0.98;0.98;;;20.90;99.90;;;;;;5029596;28;20257;-63
2023/09/14 07:04:20;;;;;;;0.90;0.90;;;20.90;99.90;;;;;;5023944;28;20242;-63
2023/09/14 07:06:48;;;;;;;1.00;1.00;;;20.90;99.90;;;;;;5029458;28;20245;-64
2023/09/14 07:09:16;;;;;;;1.10;1.00;;;20.90;99.90;;;;;;5029014;28;20278;-63
2023/09/14 07:11:43;;;;;;;1.60;1.20;;;20.90;99.90;;;;;;5025756;28;20256;-63
2023/09/14 07:14:10;;;;;;;0.90;0.90;;;20.90;99.90;;;;;;5028773;28;20194;-63
2023/09/14 07:16:37;;;;;;;1.13;0.90;;;20.80;99.90;;;;;;5030137;28;20337;-63
2023/09/14 07:19:04;;;;;;;1.08;0.98;;;20.80;99.90;;;;;;5028948;28;20210;-63
2023/09/14 07:21:36;;;;;;;1.23;0.95;;;20.80;99.90;;;;;;5028990;28;20198;-62
2023/09/14 07:24:04;;;;;;;1.00;1.00;;;20.80;99.90;;;;;;5029456;28;20191;-63
2023/09/14 07:26:34;;;;;;;0.80;0.80;;;20.80;99.90;;;;;;5030412;28;20609;-63
2023/09/14 07:29:02;;;;;;;1.55;0.88;;;20.90;99.90;;;;;;5029848;28;20546;-63
2023/09/14 07:31:29;;;;;;;0.90;0.90;;;20.90;99.90;;;;;;5033155;28;20662;-63
2023/09/14 07:33:57;;;;;;;1.00;1.00;;;20.90;99.90;;;;;;5015063;28;20288;-63
2023/09/14 07:36:24;;;;;;;1.02;0.90;;;20.90;99.90;;;;;;5032371;28;20211;-63
2023/09/14 07:38:51;;;;;;;0.82;0.63;;;20.90;99.90;;;;;;5033342;28;20245;-64
2023/09/14 07:41:18;;;;;;;1.48;1.10;;;20.90;99.90;;;;;;5014523;28;20195;-63
2023/09/14 07:43:47;;;;;;;1.00;0.80;;;21.00;99.90;;;;;;5033941;28;20213;-63
2023/09/14 07:46:14;;;;;;;1.67;1.13;;;21.00;99.90;;;;;;5031396;28;20217;-64
2023/09/14 07:48:42;;;;;;;3.05;1.48;;;21.00;99.90;;;;;;5030171;28;20220;-63
2023/09/14 07:51:09;;;;;;;2.22;1.20;;;21.00;99.90;;;;;;5032504;28;20277;-63
2023/09/14 07:53:36;;;;;;;1.60;1.00;;;21.00;99.90;;;;;;5033347;28;20740;-63
2023/09/14 07:56:04;;;;;;;6.10;1.45;;;21.10;99.90;;;;;;5028412;28;20245;-63
2023/09/14 07:58:31;;;;;;;1.17;1.17;;;21.10;99.90;;;;;;5032982;28;20572;-64
2023/09/14 08:00:59;;;;;;;1.00;1.00;;;21.30;99.90;;;;;;5032727;28;20221;-64
2023/09/14 08:03:27;;;;;;;0.85;0.85;;;21.60;99.90;;;;;;5032166;28;20237;-63
2023/09/14 08:05:54;;;;;;;0.98;0.98;;;22.00;99.90;;;;;;5028577;28;20194;-64
2023/09/14 08:08:21;;;;;;;1.00;0.90;;;22.30;99.90;;;;;;5032807;28;20230;-63
2023/09/14 08:10:52;;;;;;;0.93;0.90;;;22.60;99.90;;;;;;5032297;28;20206;-63
2023/09/14 08:13:19;;;;;;;2.08;0.90;;;22.60;99.90;;;;;;5033276;28;20260;-63
2023/09/14 08:15:49;;;;;;;2.60;1.42;;;22.60;99.90;;;;;;5032302;28;20257;-63
2023/09/14 08:18:18;;;;;;;1.70;1.00;;;22.50;99.90;;;;;;5032321;28;20219;-63
2023/09/14 08:20:46;;;;;;;1.55;1.17;;;22.40;99.90;;;;;;5014123;28;20281;-63
2023/09/14 08:23:15;;;;;;;5.40;1.58;;;22.30;99.90;;;;;;5032992;28;20199;-62
2023/09/14 08:25:43;;;;;;;1.20;1.13;;;22.30;99.90;;;;;;5032066;28;20315;-62
2023/09/14 08:28:11;;;;;;;1.20;1.10;;;22.30;99.90;;;;;;5032381;28;20277;-63
2023/09/14 08:30:38;;;;;;;1.00;0.90;;;22.40;99.90;;;;;;5032519;28;20209;-63
2023/09/14 08:33:06;;;;;;;1.10;1.00;;;22.60;99.90;;;;;;5032029;28;20241;-63
2023/09/14 08:35:36;;;;;;;1.50;0.93;;;22.90;99.90;;;;;;5031343;28;20242;-63
2023/09/14 08:38:06;;;;;;;1.30;0.93;;;23.20;99.90;;;;;;5026331;28;20249;-64
2023/09/14 08:40:34;;;;;;;2.58;1.38;;;23.30;99.90;;;;;;5027950;28;20204;-63
2023/09/14 08:43:02;;;;;;;3.10;1.33;;;23.30;99.90;;;;;;5032894;28;20213;-63
2023/09/14 08:45:30;;;;;;;3.35;1.25;;;23.30;99.90;;;;;;5032089;28;20241;-63
2023/09/14 08:47:59;;;;;;;0.93;0.93;;;23.10;99.90;;;;;;5031523;28;20605;-63
2023/09/14 08:50:28;;;;;;;2.80;1.52;;;23.00;99.90;;;;;;5030207;28;20650;-64
2023/09/14 08:52:56;;;;;;;1.70;1.30;;;22.80;99.90;;;;;;5031048;28;20199;-63
2023/09/14 08:55:25;;;;;;;3.03;1.33;;;22.70;99.90;;;;;;5031275;28;20301;-63
2023/09/14 08:57:54;;;;;;;1.83;1.30;;;22.50;99.90;;;;;;5013809;28;20229;-62
2023/09/14 09:00:22;;;;;;;5.45;1.60;;;22.40;99.90;;;;;;5032016;28;20222;-64
2023/09/14 09:02:50;;;;;;;1.50;1.40;;;22.40;99.90;;;;;;5031156;28;20198;-63
2023/09/14 09:05:19;;;;;;;5.13;1.30;;;22.30;99.90;;;;;;5030993;28;20792;-63
2023/09/14 09:07:48;;;;;;;3.33;1.50;;;22.20;99.90;;;;;;5031978;28;20202;-62
2023/09/14 09:10:22;;;;;;;2.72;1.27;;;22.20;99.90;;;;;;5031230;28;20207;-63
2023/09/14 09:12:50;;;;;;;2.45;1.35;;;22.20;99.90;;;;;;5029111;28;20555;-63
2023/09/14 09:15:17;;;;;;;4.25;1.40;;;22.10;99.90;;;;;;5031792;28;20202;-63
2023/09/14 09:17:45;;;;;;;4.03;1.30;;;22.10;99.90;;;;;;5031477;28;20226;-63
2023/09/14 09:20:22;;;;;;;5.40;1.30;;;22.10;99.90;;;;;;5030677;28;20201;-64
2023/09/14 09:22:50;;;;;;;1.25;1.10;;;22.10;99.90;;;;;;5031702;28;20205;-64
2023/09/14 09:25:21;;;;;;;3.95;1.60;;;22.10;99.90;;;;;;5031071;28;20488;-64
2023/09/14 09:27:48;;;;;;;1.48;1.10;;;22.20;99.90;;;;;;5030847;28;20212;-64
2023/09/14 09:30:16;;;;;;;1.10;1.00;;;22.30;99.90;;;;;;5013368;28;20578;-63
2023/09/14 09:32:44;;;;;;;1.60;1.10;;;22.50;99.90;;;;;;5031122;28;20289;-63
2023/09/14 09:35:19;;;;;;;1.50;1.40;;;22.70;99.90;;;;;;5029799;28;20199;-63
2023/09/14 09:37:47;;;;;;;8.05;1.50;;;23.10;99.90;;;;;;5029684;28;20256;-63
2023/09/14 09:40:15;;;;;;;1.08;0.98;;;23.40;99.90;;;;;;5030416;28;20194;-63
2023/09/14 09:42:44;;;;;;;2.70;1.40;;;23.60;99.90;;;;;;5023652;28;20214;-64
2023/09/14 09:45:11;;;;;;;1.50;1.10;;;23.60;99.90;;;;;;5029160;28;20275;-63
2023/09/14 09:47:39;;;;;;;3.65;1.63;;;23.70;99.90;;;;;;5030157;28;20195;-63
2023/09/14 09:50:07;;;;;;;1.42;1.33;;;23.80;99.90;;;;;;5029557;28;20213;-63
2023/09/14 09:52:35;;;;;;;1.98;1.40;;;23.90;99.90;;;;;;5029046;28;20195;-63
2023/09/14 09:55:04;;;;;;;2.30;1.40;;;23.90;99.90;;;;;;5029571;28;20635;-63
2023/09/14 09:57:35;;;;;;;1.20;1.20;;;24.00;99.90;;;;;;5030565;28;20217;-62
2023/09/14 10:00:13;;;;;;;2.33;1.30;;;24.10;99.90;;;;;;5028552;28;20655;-63
2023/09/14 10:02:41;;;;;;;2.92;1.30;;;24.30;99.90;;;;;;5030252;28;20214;-63
2023/09/14 10:05:09;;;;;;;2.08;1.33;;;24.50;99.90;;;;;;5028066;28;20226;-63
2023/09/14 10:07:39;;;;;;;1.67;1.17;;;24.80;99.90;;;;;;5031436;28;20199;-63
2023/09/14 10:10:08;;;;;;;2.17;1.23;;;25.00;99.90;;;;;;5030039;28;20194;-63
2023/09/14 10:12:41;;;;;;;1.95;1.30;;;25.20;99.90;;;;;;5030657;28;20274;-63
2023/09/14 10:15:10;;;;;;;2.85;1.10;;;25.40;99.90;;;;;;5027150;28;20191;-62
2023/09/14 10:17:38;;;;;;;1.83;1.25;;;25.60;99.90;;;;;;5023090;28;20308;-63
2023/09/14 10:20:09;;;;;;;1.98;1.20;;;25.90;99.90;;;;;;5028728;28;20260;-62
2023/09/14 10:22:38;;;;;;;1.55;1.45;;;26.20;99.90;;;;;;5030154;28;20228;-63
2023/09/14 10:25:08;;;;;;;2.45;1.30;;;26.50;99.90;;;;;;5029660;28;20195;-62
2023/09/14 10:27:36;;;;;;;1.00;1.00;;;26.60;99.90;;;;;;5030484;28;20214;-63
2023/09/14 10:30:05;;;;;;;1.05;1.05;;;26.70;99.70;;;;;;5030097;28;20270;-64
2023/09/14 10:32:37;;;;;;;1.17;1.08;;;26.70;99.40;;;;;;5012495;28;20309;-63
2023/09/14 10:35:06;;;;;;;1.30;1.20;;;26.90;99.20;;;;;;5028869;28;20194;-63
2023/09/14 10:37:34;;;;;;;2.78;1.20;;;27.00;98.60;;;;;;5028896;28;20615;-63
2023/09/14 10:40:04;;;;;;;1.50;1.17;;;27.00;98.30;;;;;;5019892;28;20629;-63
2023/09/14 10:42:31;;;;;;;1.13;1.10;;;27.00;98.30;;;;;;5012213;28;20209;-63
2023/09/14 10:44:58;;;;;;;1.00;1.00;;;27.10;98.10;;;;;;5027951;28;20202;-62
2023/09/14 10:47:36;;;;;;;7.50;1.13;;;27.20;98.40;;;;;;5029876;28;20630;-62
2023/09/14 10:50:06;;;;;;;2.97;1.30;;;27.10;97.70;;;;;;5028531;28;20547;-64
2023/09/14 10:52:34;;;;;;;1.27;1.15;;;27.10;97.40;;;;;;5026750;28;20221;-64
2023/09/14 10:55:04;;;;;;;4.53;1.65;;;27.20;97.30;;;;;;5026356;28;20601;-63
2023/09/14 10:57:31;;;;;;;1.10;1.00;;;27.10;96.50;;;;;;5030010;28;20203;-63
2023/09/14 10:59:59;;;;;;;5.60;1.70;;;26.90;96.50;;;;;;5029716;28;20654;-63
2023/09/14 11:02:57;;;;;;;2.08;1.40;;;26.80;96.40;;;;;;5030188;28;20195;-63
2023/09/14 11:05:27;;;;;;;1.55;1.20;;;26.70;96.50;;;;;;5027706;28;20685;-63
2023/09/14 11:08:03;;;;;;;2.88;1.25;;;26.80;96.60;;;;;;5031841;28;20210;-63
2023/09/14 11:10:30;;;;;;;2.38;1.33;;;26.90;96.70;;;;;;5015491;28;20194;-63
2023/09/14 11:13:24;;;;;;;2.72;1.48;;;26.90;96.50;;;;;;5034405;28;20642;-63
2023/09/14 11:15:56;;;;;;;1.73;1.30;;;26.90;95.90;;;;;;5015887;28;20252;-63
2023/09/14 11:18:35;;;;;;;2.05;1.27;;;26.90;95.60;;;;;;5033973;28;20248;-63
2023/09/14 11:21:03;;;;;;;1.27;1.17;;;26.90;95.40;;;;;;5032736;28;20197;-63
2023/09/14 11:23:36;;;;;;;1.98;1.35;;;26.80;95.60;;;;;;5034132;28;20198;-63
2023/09/14 11:26:04;;;;;;;0.88;0.88;;;26.70;95.60;;;;;;5033112;28;20289;-62
2023/09/14 11:28:35;;;;;;;1.75;1.10;;;26.60;96.10;;;;;;5033384;28;20290;-63
2023/09/14 11:31:03;;;;;;;1.60;1.17;;;26.50;95.30;;;;;;5015432;28;20702;-63
2023/09/14 11:33:33;;;;;;;1.55;1.40;;;26.40;95.30;;;;;;5033453;28;20280;-64
2023/09/14 11:36:01;;;;;;;2.63;1.33;;;26.30;94.90;;;;;;5032753;28;20191;-63
2023/09/14 11:38:30;;;;;;;1.63;1.40;;;26.10;95.00;;;;;;5015007;28;20267;-63
2023/09/14 11:40:57;;;;;;;3.40;1.65;;;25.90;95.20;;;;;;5032696;28;20667;-63
2023/09/14 11:43:28;;;;;;;3.35;1.48;;;25.80;95.20;;;;;;5032845;28;20199;-63
2023/09/14 11:46:00;;;;;;;1.40;1.30;;;25.70;95.30;;;;;;5032825;28;20201;-63
2023/09/14 11:48:33;;;;;;;2.80;1.45;;;25.70;95.40;;;;;;5031406;28;20607;-63
2023/09/14 11:51:03;;;;;;;1.90;1.38;;;25.60;95.70;;;;;;5014093;28;20201;-63
2023/09/14 11:53:35;;;;;;;1.92;1.33;;;25.60;95.80;;;;;;5033571;28;20285;-63
2023/09/14 11:56:03;;;;;;;1.48;1.13;;;25.60;95.90;;;;;;5032602;28;20241;-63
2023/09/14 11:58:34;;;;;;;4.65;1.88;;;25.60;95.80;;;;;;5004684;28;20210;-63
2023/09/14 12:01:02;;;;;;;2.35;1.17;;;25.50;95.20;;;;;;5032916;28;20195;-64
2023/09/14 12:03:30;;;;;;;1.63;1.30;;;25.30;95.30;;;;;;5032344;28;20198;-63
2023/09/14 12:05:59;;;;;;;2.35;1.35;;;25.20;95.30;;;;;;5032279;28;20198;-63
2023/09/14 12:08:26;;;;;;;1.00;1.00;;;25.10;95.50;;;;;;5033542;28;20291;-63
2023/09/14 12:10:56;;;;;;;2.33;1.15;;;25.00;95.60;;;;;;5032292;28;20207;-63
2023/09/14 12:13:23;;;;;;;1.33;1.13;;;24.90;95.70;;;;;;5033172;28;20198;-63
2023/09/14 12:15:59;;;;;;;4.07;1.45;;;24.90;95.80;;;;;;5031582;28;20226;-63
2023/09/14 12:18:39;;;;;;;3.25;1.70;;;24.90;95.60;;;;;;5032573;28;20218;-64
2023/09/14 12:21:08;;;;;;;2.10;1.00;;;24.80;95.60;;;;;;5031077;28;20542;-64
2023/09/14 12:23:38;;;;;;;2.30;1.30;;;24.90;95.50;;;;;;5032906;28;20226;-63
2023/09/14 12:26:07;;;;;;;3.30;1.15;;;25.00;95.30;;;;;;5032119;28;20199;-62
2023/09/14 12:28:34;;;;;;;3.08;1.13;;;25.20;95.30;;;;;;5032159;28;20441;-64
2023/09/14 12:31:02;;;;;;;4.85;1.40;;;25.30;95.00;;;;;;5032148;28;20229;-63
2023/09/14 12:33:31;;;;;;;2.13;1.40;;;25.30;94.90;;;;;;5031855;28;20222;-63
2023/09/14 12:35:58;;;;;;;2.15;1.02;;;25.30;94.90;;;;;;5031108;28;20195;-63
2023/09/14 12:38:25;;;;;;;4.80;1.70;;;25.30;95.00;;;;;;5031979;28;20230;-62
2023/09/14 12:40:52;;;;;;;1.85;1.08;;;25.40;95.00;;;;;;5028992;28;20662;-63
2023/09/14 12:43:21;;;;;;;1.50;1.25;;;25.60;95.30;;;;;;5023051;28;20198;-62
2023/09/14 12:45:48;;;;;;;4.00;1.40;;;26.10;94.60;;;;;;5031058;28;20195;-62
2023/09/14 12:48:18;;;;;;;1.63;1.10;;;26.60;93.80;;;;;;5028909;28;20247;-62
2023/09/14 12:50:45;;;;;;;0.90;0.90;;;26.80;93.30;;;;;;5027713;28;20270;-63
2023/09/14 12:53:13;;;;;;;1.90;1.20;;;26.80;92.70;;;;;;5029338;28;20233;-63
2023/09/14 12:55:44;;;;;;;1.38;1.27;;;26.90;92.60;;;;;;5031804;28;20198;-63